Аэропорт: Кызылорда. Кызылорда

ICAO: UAOO

METAR:
2019/03/26 13:00
UAOO 261300Z 07003MPS 9000 -SHRA OVC040CB 13/12 Q1012 R05/290065 NOSIG RMK QFE747/0996
METAR:
2018/04/18 00:06
TAF TAF UAOO 172300Z 1700/1809 27006MPS 9999 SCT033 BKN100